Time;durP1;ratioP1;P1;durP2;ratioP2;P2;SDS_P1;SDS_P2;PMS_P1;PMS_P2;Temp;Humidity;BMP_temperature;BMP_pressure;BME280_temperature;BME280_humidity;BME280_pressure;Samples;Min_cycle;Max_cycle;Signal;HPM_P1;HPM_P2
2023/04/21 02:32:43;;;;;;;;;;;;;;;8.64;100.00;99163.78;5194705;22;19978;-84
2023/04/21 02:35:08;;;;;;;;;;;;;;;8.64;100.00;99164.66;5032176;28;20434;-84
2023/04/21 02:37:34;;;;;;;;;;;;;;;8.64;100.00;99161.16;5015736;28;19916;-84
2023/04/21 02:39:59;;;;;;;;;;;;;;;8.64;100.00;99163.78;5015333;28;20008;-83
2023/04/21 02:42:24;;;;;;;;;;;;;;;8.65;100.00;99157.59;5032687;28;19917;-82
2023/04/21 02:44:49;;;;;;;;;;;;;;;8.65;100.00;99154.97;5033792;28;20452;-83
2023/04/21 02:47:15;;;;;;;;;;;;;;;8.65;100.00;99152.31;5032072;28;19917;-83
2023/04/21 02:49:41;;;;;;;;;;;;;;;8.66;100.00;99151.38;5015519;28;19917;-84
2023/04/21 02:52:06;;;;;;;;;;;;;;;8.66;100.00;99151.38;5033306;28;19925;-84
2023/04/21 02:54:31;;;;;;;;;;;;;;;8.67;100.00;99153.09;5033301;28;19921;-84
2023/04/21 02:56:56;;;;;;;;;;;;;;;8.67;100.00;99153.94;5033411;28;19940;-85
2023/04/21 02:59:24;;;;;;;;;;;;;;;8.68;100.00;99144.22;5015121;28;19917;-87
2023/04/21 03:01:49;;;;;;;;;;;;;;;8.69;100.00;99151.22;5032058;28;19947;-86
2023/04/21 03:04:15;;;;;;;;;;;;;;;8.67;100.00;99153.94;5033204;28;20426;-85
2023/04/21 03:06:40;;;;;;;;;;;;;;;8.68;100.00;99158.31;5033216;28;19924;-86
2023/04/21 03:09:06;;;;;;;;;;;;;;;8.70;100.00;99163.53;5014922;28;19917;-85
2023/04/21 03:11:31;;;;;;;;;;;;;;;8.69;100.00;99157.38;4998741;28;20364;-86
2023/04/21 03:13:56;;;;;;;;;;;;;;;8.70;100.00;99160.88;5032949;28;19917;-86
2023/04/21 03:16:21;;;;;;;;;;;;;;;8.70;100.00;99166.16;5031849;28;20284;-86
2023/04/21 03:18:47;;;;;;;;;;;;;;;8.71;100.00;99155.53;5032981;28;20008;-85
2023/04/21 03:21:12;;;;;;;;;;;;;;;8.72;100.00;99161.66;5033093;28;19921;-86
2023/04/21 03:23:37;;;;;;;;;;;;;;;8.72;100.00;99164.31;5014624;28;19917;-86
2023/04/21 03:26:06;;;;;;;;;;;;;;;8.72;100.00;99167.78;5014765;28;19928;-86
2023/04/21 03:28:31;;;;;;;;;;;;;;;8.75;100.00;99173.88;5032378;28;19921;-87
2023/04/21 03:30:57;;;;;;;;;;;;;;;8.72;100.00;99173.06;5031378;28;19963;-86
2023/04/21 03:33:22;;;;;;;;;;;;;;;8.73;100.00;99179.25;5014448;28;20339;-85
2023/04/21 03:35:47;;;;;;;;;;;;;;;8.75;100.00;99185.28;5014642;28;19924;-86
2023/04/21 03:38:12;;;;;;;;;;;;;;;8.73;100.00;99187.16;5032387;28;19964;-83
2023/04/21 03:40:38;;;;;;;;;;;;;;;8.73;100.00;99187.16;5014793;28;20356;-83
2023/04/21 03:43:03;;;;;;;;;;;;;;;8.78;100.00;99189.59;5032440;28;20016;-83
2023/04/21 07:15:45;;;;;;;;;;;;;;;8.41;100.00;99176.22;5916238;22;19933;-88
2023/04/21 07:18:10;;;;;;;;;;;;;;;8.44;100.00;99172.59;5018453;28;19960;-90
2023/04/21 07:20:35;;;;;;;;;;;;;;;8.46;100.00;99176.03;5019802;28;19981;-89
2023/04/21 07:23:01;;;;;;;;;;;;;;;8.48;100.00;99164.47;5022999;28;19921;-88
2023/04/21 07:25:26;;;;;;;;;;;;;;;8.49;100.00;99168.84;5022587;28;19925;-89
2023/04/21 07:27:51;;;;;;;;;;;;;;;8.52;100.00;99167.81;5021299;28;20311;-88
2023/04/21 07:30:17;;;;;;;;;;;;;;;8.52;100.00;99163.41;5020116;28;19918;-88
2023/04/21 07:32:42;;;;;;;;;;;;;;;8.56;100.00;99158.84;5022529;28;19921;-88
2023/04/21 07:35:07;;;;;;;;;;;;;;;8.57;100.00;99152.66;5022355;28;20380;-90
2023/04/21 07:37:33;;;;;;;;;;;;;;;8.59;100.00;99155.22;5005020;28;19971;-90
2023/04/21 07:39:58;;;;;;;;;;;;;;;8.62;100.00;99152.44;5023112;28;19921;-90
2023/04/21 07:42:25;;;;;;;;;;;;;;;8.64;100.00;99147.94;5001977;28;20075;-87
2023/04/21 07:44:51;;;;;;;;;;;;;;;8.65;100.00;99154.97;5015678;28;19975;-87
2023/04/21 07:47:17;;;;;;;;;;;;;;;8.64;100.00;99150.59;5004292;28;19921;-87
2023/04/21 07:49:42;;;;;;;;;;;;;;;8.66;100.00;99140.81;5003329;28;19970;-89
2023/04/21 07:52:07;;;;;;;;;;;;;;;8.69;100.00;99153.88;5016396;28;19921;-89
2023/04/21 08:00:08;;;;;;;;;;;;;;;8.72;100.00;99137.88;5142325;22;20431;-91
2023/04/21 08:02:33;;;;;;;;;;;;;;;8.70;100.00;99131.81;5012396;28;19998;-88
2023/04/21 08:04:58;;;;;;;;;;;;;;;8.72;100.00;99136.09;5038275;28;20002;-90
2023/04/21 08:07:24;;;;;;;;;;;;;;;8.73;100.00;99131.69;5013590;28;19921;-89
2023/04/21 08:09:49;;;;;;;;;;;;;;;8.75;100.00;99135.13;5032536;28;20382;-90
2023/04/21 08:12:18;;;;;;;;;;;;;;;8.73;100.00;99137.81;5014843;28;19917;-90
2023/04/21 08:14:43;;;;;;;;;;;;;;;8.75;100.00;99132.47;5013822;28;20394;-91
2023/04/21 08:17:08;;;;;;;;;;;;;;;8.79;100.00;99133.19;5030968;28;19921;-90
2023/04/21 08:19:34;;;;;;;;;;;;;;;8.79;100.00;99131.41;5012392;28;19921;-93
2023/04/21 08:21:59;;;;;;;;;;;;;;;8.81;100.00;99128.72;5032547;28;19960;-85
2023/04/21 08:24:24;;;;;;;;;;;;;;;8.80;100.00;99130.47;5013105;28;19925;-85
2023/04/21 08:26:49;;;;;;;;;;;;;;;8.81;100.00;99126.06;5031492;28;19926;-90
2023/04/21 08:29:15;;;;;;;;;;;;;;;8.83;100.00;99122.41;5028688;28;20434;-91
2023/04/21 08:31:40;;;;;;;;;;;;;;;8.83;100.00;99130.31;5029739;28;19921;-90
2023/04/21 08:34:06;;;;;;;;;;;;;;;8.84;100.00;99126.78;5026802;28;20044;-85
2023/04/21 08:36:31;;;;;;;;;;;;;;;8.85;100.00;99124.97;5028638;28;19971;-87
2023/04/21 08:38:56;;;;;;;;;;;;;;;8.85;100.00;99117.91;5028423;28;19925;-85
2023/04/21 08:41:23;;;;;;;;;;;;;;;8.87;100.00;99115.19;5032534;28;19929;-86
2023/04/21 08:43:49;;;;;;;;;;;;;;;8.86;100.00;99111.69;5035418;28;19968;-90
2023/04/21 08:46:14;;;;;;;;;;;;;;;8.86;100.00;99106.41;5013317;28;19967;-89
2023/04/21 08:48:40;;;;;;;;;;;;;;;8.87;100.00;99101.97;5035214;28;19921;-88
2023/04/21 08:51:09;;;;;;;;;;;;;;;8.88;100.00;99103.69;5033257;28;19921;-85
2023/04/21 08:53:35;;;;;;;;;;;;;;;8.22;100.00;99104.00;5014092;28;20008;-86
2023/04/21 08:56:01;;;;;;;;;;;;;;;7.18;100.00;99105.69;5017734;28;19917;-90
2023/04/21 08:58:26;;;;;;;;;;;;;;;6.77;100.00;99100.25;5017866;28;19967;-86
2023/04/21 09:00:51;;;;;;;;;;;;;;;6.47;100.00;99094.38;5038794;28;20276;-90
2023/04/21 09:03:28;;;;;;;;;;;;;;;6.23;100.00;99089.09;5065099;28;19964;-89
2023/04/21 09:05:58;;;;;;;;;;;;;;;6.21;100.00;99097.94;5045679;28;19940;-86
2023/04/21 09:08:25;;;;;;;;;;;;;;;6.10;100.00;99096.56;5065952;28;20014;-92
2023/04/21 09:10:51;;;;;;;;;;;;;;;6.09;100.00;99086.94;5064295;28;19917;-91
2023/04/21 09:13:17;;;;;;;;;;;;;;;5.97;100.00;99083.00;5046394;28;19935;-92
2023/04/21 09:15:44;;;;;;;;;;;;;;;5.81;100.00;99082.63;5062491;28;19920;-89
2023/04/21 09:18:13;;;;;;;;;;;;;;;5.83;100.00;99072.06;5063703;28;19916;-88
2023/04/21 09:20:39;;;;;;;;;;;;;;;5.80;100.00;99072.16;5046867;28;19920;-88
2023/04/21 09:23:05;;;;;;;;;;;;;;;5.66;100.00;99072.63;5045316;28;19924;-93
2023/04/21 09:25:31;;;;;;;;;;;;;;;5.69;100.00;99076.94;5064447;28;19924;-87
2023/04/21 09:28:06;;;;;;;;;;;;;;;5.71;100.00;99069.84;5045225;28;19929;-90
2023/04/21 09:30:33;;;;;;;;;;;;;;;5.63;100.00;99072.72;5064624;28;19916;-88
2023/04/21 09:32:58;;;;;;;;;;;;;;;5.60;100.00;99092.13;5060825;28;20278;-87
2023/04/21 09:35:27;;;;;;;;;;;;;;;5.54;100.00;99083.59;5065743;28;19945;-87
2023/04/21 09:37:52;;;;;;;;;;;;;;;5.50;100.00;99082.81;5066146;28;19923;-86
2023/04/21 09:40:18;;;;;;;;;;;;;;;5.97;100.00;99079.50;5045718;28;19924;-84
2023/04/21 09:42:43;;;;;;;;;;;;;;;6.53;100.00;99081.84;5064342;28;19971;-85
2023/04/21 09:45:09;;;;;;;;;;;;;;;6.91;100.00;99074.25;5064422;28;19974;-89
2023/04/21 09:47:38;;;;;;;;;;;;;;;7.13;100.00;99076.00;5061629;28;20007;-89
2023/04/21 09:50:05;;;;;;;;;;;;;;;7.27;100.00;99073.72;5046248;28;19916;-88
2023/04/21 09:52:32;;;;;;;;;;;;;;;7.43;100.00;99070.44;5063368;28;19978;-84
2023/04/21 09:55:03;;;;;;;;;;;;;;;7.54;100.00;99065.56;5056810;28;19931;-86
2023/04/21 09:57:30;;;;;;;;;;;;;;;7.67;100.00;99072.97;5062274;28;19963;-88
2023/04/21 09:59:59;;;;;;;;;;;;;;;7.76;100.00;99059.41;5051298;28;19922;-85
2023/04/21 10:02:28;;;;;;;;;;;;;;;8.11;100.00;99055.22;5034368;28;19918;-86
2023/04/21 10:04:54;;;;;;;;;;;;;;;8.05;100.00;99058.13;5033363;28;19928;-86
2023/04/21 10:07:19;;;;;;;;;;;;;;;8.07;100.00;99058.03;5016111;28;19920;-86
2023/04/21 10:09:46;;;;;;;;;;;;;;;8.09;100.00;99056.19;5034001;28;19929;-87
2023/04/21 10:12:12;;;;;;;;;;;;;;;8.15;100.00;99048.00;5033947;28;19932;-86
2023/04/21 10:14:37;;;;;;;;;;;;;;;8.21;100.00;99060.09;5032354;28;19924;-87
2023/04/21 10:17:04;;;;;;;;;;;;;;;8.26;100.00;99053.66;5015402;28;19955;-87
2023/04/21 10:19:35;;;;;;;;;;;;;;;8.28;100.00;99051.81;5033163;28;19917;-86
2023/04/21 10:22:00;;;;;;;;;;;;;;;8.32;100.00;99041.97;5016020;28;19921;-86
2023/04/21 10:24:29;;;;;;;;;;;;;;;8.35;100.00;99047.13;5033810;28;19955;-88
2023/04/21 10:26:58;;;;;;;;;;;;;;;8.38;100.00;99046.97;5015264;28;19924;-89
2023/04/21 10:29:33;;;;;;;;;;;;;;;8.43;100.00;99044.13;5033048;28;19925;-86
2023/04/21 10:31:58;;;;;;;;;;;;;;;8.44;100.00;99045.84;5039911;28;20056;-89
2023/04/21 10:34:24;;;;;;;;;;;;;;;8.46;100.00;99036.09;5014043;28;20016;-88
2023/04/21 10:36:55;;;;;;;;;;;;;;;8.48;100.00;99026.31;5033022;28;19927;-91
2023/04/21 10:39:25;;;;;;;;;;;;;;;8.49;100.00;99028.91;5032509;28;19930;-90
2023/04/21 10:41:50;;;;;;;;;;;;;;;8.51;100.00;99021.75;5015661;28;20391;-88
2023/04/21 10:44:16;;;;;;;;;;;;;;;8.54;100.00;99016.31;5032639;28;20015;-89
2023/04/21 10:46:47;;;;;;;;;;;;;;;8.58;100.00;99016.19;5013447;28;19925;-90
2023/04/21 10:49:25;;;;;;;;;;;;;;;8.57;100.00;99004.78;5010502;28;19921;-90
2023/04/21 10:51:57;;;;;;;;;;;;;;;8.59;100.00;99005.56;4994799;28;20601;-91
2023/04/21 10:54:26;;;;;;;;;;;;;;;8.63;100.00;99003.63;5009663;28;19921;-90
2023/04/21 10:56:54;;;;;;;;;;;;;;;8.65;100.00;98996.50;5011626;28;20381;-90
2023/04/21 10:59:25;;;;;;;;;;;;;;;8.64;100.00;98998.25;4995793;28;19953;-91
2023/04/21 11:01:54;;;;;;;;;;;;;;;8.66;100.00;98991.16;5021538;28;20446;-91
2023/04/21 11:04:20;;;;;;;;;;;;;;;8.70;100.00;98986.56;5021547;28;19925;-90
2023/04/21 11:07:07;;;;;;;;;;;;;;;8.73;100.00;98975.84;5003874;28;19925;-90
2023/04/21 11:09:32;;;;;;;;;;;;;;;8.73;100.00;98989.06;5003920;28;19960;-91
2023/04/21 11:11:58;;;;;;;;;;;;;;;8.72;100.00;98980.25;5004042;28;20034;-91
2023/04/21 11:14:28;;;;;;;;;;;;;;;8.76;100.00;98975.72;5005477;28;19929;-88
2023/04/21 11:16:54;;;;;;;;;;;;;;;8.79;100.00;98967.63;5030276;28;20257;-89
2023/04/21 11:19:23;;;;;;;;;;;;;;;8.82;100.00;98967.50;5032355;28;19984;-89
2023/04/21 11:22:00;;;;;;;;;;;;;;;8.81;100.00;98968.41;5030882;28;20016;-91
2023/04/21 11:24:35;;;;;;;;;;;;;;;8.83;100.00;98961.25;5015479;28;20028;-88
2023/04/21 11:27:00;;;;;;;;;;;;;;;8.83;100.00;98953.34;5031207;28;19921;-89
2023/04/21 11:29:28;;;;;;;;;;;;;;;8.86;100.00;98953.19;5032190;28;20015;-88
2023/04/21 11:31:53;;;;;;;;;;;;;;;8.83;100.00;98963.06;5031746;28;20004;-87
2023/04/21 11:34:23;;;;;;;;;;;;;;;8.89;100.00;98958.31;5031832;28;20047;-86
2023/04/21 11:36:49;;;;;;;;;;;;;;;8.89;100.00;98960.97;5030876;28;20442;-89
2023/04/21 11:39:16;;;;;;;;;;;;;;;8.90;100.00;98957.41;5031929;28;19921;-89
2023/04/21 11:41:49;;;;;;;;;;;;;;;8.88;100.00;98953.97;5011572;28;19928;-90
2023/04/21 11:44:33;;;;;;;;;;;;;;;8.90;100.00;98944.19;5029184;28;20444;-90
2023/04/21 11:46:58;;;;;;;;;;;;;;;8.91;100.00;98945.03;5030550;28;19925;-90
2023/04/21 11:49:24;;;;;;;;;;;;;;;8.93;100.00;98952.88;5013403;28;19940;-89
2023/04/21 11:51:50;;;;;;;;;;;;;;;8.95;100.00;98951.00;5030458;28;19963;-89
2023/04/21 11:54:20;;;;;;;;;;;;;;;8.93;100.00;98947.59;5012597;28;19956;-90
2023/04/21 11:56:46;;;;;;;;;;;;;;;8.95;100.00;98951.00;5030397;28;20439;-91
2023/04/21 11:59:13;;;;;;;;;;;;;;;8.96;100.00;98950.09;5014812;28;20012;-91
2023/04/21 12:01:42;;;;;;;;;;;;;;;8.24;100.00;98959.66;5036488;28;19932;-90
2023/04/21 12:04:12;;;;;;;;;;;;;;;7.28;100.00;98979.69;5039186;28;20375;-89
2023/04/21 12:06:37;;;;;;;;;;;;;;;6.94;100.00;98975.84;5054432;28;20562;-87
2023/04/21 12:09:02;;;;;;;;;;;;;;;6.66;100.00;98981.34;5033612;28;19928;-89
2023/04/21 12:11:28;;;;;;;;;;;;;;;6.58;100.00;98984.28;5040907;28;19929;-89
2023/04/21 12:13:55;;;;;;;;;;;;;;;6.46;100.00;98990.00;5055166;28;19924;-91
2023/04/21 12:16:20;;;;;;;;;;;;;;;6.35;100.00;99004.44;5038303;28;20012;-87
2023/04/21 12:18:47;;;;;;;;;;;;;;;6.30;100.00;99006.41;5039806;28;20012;-91
2023/04/21 12:21:13;;;;;;;;;;;;;;;6.19;100.00;99011.22;5040399;28;19933;-89
2023/04/21 12:23:38;;;;;;;;;;;;;;;6.14;100.00;99018.38;5041037;28;19916;-89
2023/04/21 12:26:04;;;;;;;;;;;;;;;6.03;100.00;99037.22;5039960;28;19923;-90
2023/04/21 12:28:30;;;;;;;;;;;;;;;5.98;100.00;99047.91;5039871;28;20023;-91
2023/04/21 12:30:55;;;;;;;;;;;;;;;5.96;100.00;99040.94;5039486;28;19975;-88
2023/04/21 12:33:20;;;;;;;;;;;;;;;5.95;100.00;99010.28;5037269;28;19960;-92
2023/04/21 12:35:46;;;;;;;;;;;;;;;5.90;100.00;98963.13;5040340;28;19923;-86
2023/04/21 12:38:11;;;;;;;;;;;;;;;5.91;100.00;98969.25;5038276;28;19980;-87
2023/04/21 12:40:46;;;;;;;;;;;;;;;5.94;100.00;98983.13;5040518;28;20380;-90
2023/04/21 12:43:17;;;;;;;;;;;;;;;5.90;100.00;98981.53;5040378;28;20074;-88
2023/04/21 12:45:42;;;;;;;;;;;;;;;5.79;100.00;98975.78;5041103;28;20072;-90
2023/04/21 12:48:07;;;;;;;;;;;;;;;5.81;100.00;98976.63;5039968;28;20004;-90
2023/04/21 12:50:32;;;;;;;;;;;;;;;5.74;100.00;98977.75;5041806;28;19921;-87
2023/04/21 12:52:58;;;;;;;;;;;;;;;5.75;100.00;98974.22;5040844;28;20387;-91
2023/04/21 12:55:23;;;;;;;;;;;;;;;6.35;100.00;98972.88;5041577;28;19917;-89
2023/04/21 12:57:49;;;;;;;;;;;;;;;6.81;100.00;98967.56;5039585;28;19975;-89
2023/04/21 13:00:15;;;;;;;;;;;;;;;7.09;100.00;98964.63;5035195;28;19991;-87
2023/04/21 13:02:40;;;;;;;;;;;;;;;7.25;100.00;98959.59;5031527;28;19925;-87
2023/04/21 13:05:10;;;;;;;;;;;;;;;7.40;100.00;98962.50;5013966;28;19917;-91
2023/04/21 13:07:36;;;;;;;;;;;;;;;7.53;100.00;98963.69;5033355;28;19932;-90
2023/04/21 13:10:03;;;;;;;;;;;;;;;7.62;100.00;98960.63;5037940;28;20288;-90
2023/04/21 13:12:29;;;;;;;;;;;;;;;7.71;100.00;98959.38;5013202;28;20453;-89
2023/04/21 13:14:54;;;;;;;;;;;;;;;7.80;100.00;98952.81;5030658;28;20073;-90
2023/04/21 13:17:19;;;;;;;;;;;;;;;7.88;100.00;98950.72;5013846;28;20425;-87
2023/04/21 13:19:44;;;;;;;;;;;;;;;7.95;100.00;98956.56;5031450;28;19953;-88
2023/04/21 13:22:10;;;;;;;;;;;;;;;8.03;100.00;98950.97;5030888;28;19977;-88
2023/04/21 13:24:35;;;;;;;;;;;;;;;8.11;100.00;98933.84;5029567;28;19923;-86
2023/04/21 13:27:00;;;;;;;;;;;;;;;8.16;100.00;98923.06;5032897;28;20376;-89
2023/04/21 13:29:28;;;;;;;;;;;;;;;8.23;100.00;98921.00;5017155;28;19912;-89
2023/04/21 13:31:54;;;;;;;;;;;;;;;8.29;100.00;98915.44;5018045;28;20320;-89
2023/04/21 13:34:20;;;;;;;;;;;;;;;8.33;100.00;98923.13;5034283;28;19929;-90
2023/04/21 13:36:45;;;;;;;;;;;;;;;8.37;100.00;98919.41;5034299;28;19976;-86
2023/04/21 13:39:11;;;;;;;;;;;;;;;8.44;100.00;98911.22;5033668;28;19984;-91
2023/04/21 13:41:36;;;;;;;;;;;;;;;8.49;100.00;98911.88;5016656;28;20077;-88
2023/04/21 13:44:01;;;;;;;;;;;;;;;8.50;100.00;98905.66;5033840;28;19921;-90
2023/04/21 13:46:27;;;;;;;;;;;;;;;8.56;100.00;98907.16;5033737;28;19960;-88
2023/04/21 13:48:52;;;;;;;;;;;;;;;8.60;100.00;98892.84;5034929;28;19975;-87
2023/04/21 13:51:18;;;;;;;;;;;;;;;8.59;100.00;98888.53;5012330;28;20376;-89
2023/04/21 13:53:43;;;;;;;;;;;;;;;8.63;100.00;98882.13;5016848;28;20222;-92
2023/04/21 13:56:10;;;;;;;;;;;;;;;8.64;100.00;98879.44;5016488;28;19976;-89
2023/04/21 13:58:35;;;;;;;;;;;;;;;8.68;100.00;98874.84;5014911;28;19921;-90
2023/04/21 14:01:00;;;;;;;;;;;;;;;8.70;100.00;98857.16;5040153;28;19975;-90
2023/04/21 14:03:26;;;;;;;;;;;;;;;8.72;100.00;98865.84;5042217;28;19924;-89
2023/04/21 14:05:51;;;;;;;;;;;;;;;8.75;100.00;98870.97;5043873;28;20344;-90
2023/04/21 14:08:17;;;;;;;;;;;;;;;8.78;100.00;98869.97;5043062;28;19929;-90
2023/04/21 14:10:42;;;;;;;;;;;;;;;8.77;100.00;98862.97;5045289;28;19921;-89
2023/04/21 14:13:07;;;;;;;;;;;;;;;8.79;100.00;98853.19;5063811;28;20023;-91
2023/04/21 14:15:32;;;;;;;;;;;;;;;8.79;100.00;98855.81;5064142;28;19964;-89
2023/04/21 14:17:59;;;;;;;;;;;;;;;8.82;100.00;98845.97;5045036;28;19921;-90
2023/04/21 14:20:24;;;;;;;;;;;;;;;8.84;100.00;98844.09;5062256;28;19921;-88
2023/04/21 14:22:49;;;;;;;;;;;;;;;8.85;100.00;98845.78;5043898;28;19931;-89
2023/04/21 14:25:15;;;;;;;;;;;;;;;8.90;100.00;98838.50;5061843;28;19925;-87
2023/04/21 14:27:40;;;;;;;;;;;;;;;8.90;100.00;98840.28;5044608;28;19976;-91
2023/04/21 14:30:06;;;;;;;;;;;;;;;8.91;100.00;98834.91;5062423;28;20019;-87
2023/04/21 14:32:31;;;;;;;;;;;;;;;8.92;100.00;98833.16;5045890;28;20363;-90
2023/04/21 14:34:58;;;;;;;;;;;;;;;8.93;100.00;98831.34;5045515;28;19920;-89
2023/04/21 14:37:23;;;;;;;;;;;;;;;8.94;100.00;98822.50;5040843;28;19972;-88
2023/04/21 14:39:57;;;;;;;;;;;;;;;8.96;100.00;98823.28;5043451;28;20006;-91
2023/04/21 14:42:23;;;;;;;;;;;;;;;8.96;100.00;98812.72;5062860;28;19925;-89
2023/04/21 14:44:57;;;;;;;;;;;;;;;8.97;100.00;98815.28;5038400;28;19921;-89
2023/04/21 14:47:22;;;;;;;;;;;;;;;8.98;100.00;98816.97;5061586;28;19920;-90
2023/04/21 14:49:51;;;;;;;;;;;;;;;9.00;100.00;98819.53;5041938;28;19982;-91
2023/04/21 14:52:19;;;;;;;;;;;;;;;8.12;100.00;98814.19;5043025;28;19974;-92
2023/04/21 14:54:47;;;;;;;;;;;;;;;7.30;100.00;98827.63;5044447;28;19962;-90
2023/04/21 14:57:13;;;;;;;;;;;;;;;6.96;100.00;98826.50;5063502;28;19960;-89
2023/04/21 14:59:38;;;;;;;;;;;;;;;6.85;100.00;98820.84;5043596;28;19963;-90
2023/04/21 15:02:04;;;;;;;;;;;;;;;6.73;100.00;98816.94;5039712;28;20425;-89
2023/04/21 15:04:29;;;;;;;;;;;;;;;6.68;100.00;98838.19;5038532;28;19921;-90
2023/04/21 15:06:57;;;;;;;;;;;;;;;6.51;100.00;98853.81;5043012;28;20008;-89
2023/04/21 15:09:23;;;;;;;;;;;;;;;6.40;100.00;98853.41;5050075;28;19927;-92
2023/04/21 15:11:48;;;;;;;;;;;;;;;6.44;100.00;98866.38;5042184;28;19916;-91
2023/04/21 15:14:13;;;;;;;;;;;;;;;6.44;100.00;98870.78;5037059;28;19951;-89
2023/04/21 15:16:46;;;;;;;;;;;;;;;6.40;100.00;98877.09;5038230;28;19971;-90
2023/04/21 15:19:12;;;;;;;;;;;;;;;6.30;100.00;98876.59;5048209;28;20358;-89
2023/04/21 15:21:37;;;;;;;;;;;;;;;6.15;100.00;98868.41;5039516;28;20020;-87
2023/04/21 15:24:02;;;;;;;;;;;;;;;6.15;100.00;98891.22;5048413;28;20003;-90
2023/04/21 15:26:29;;;;;;;;;;;;;;;6.14;100.00;98884.25;5036474;28;19983;-89
2023/04/21 15:28:54;;;;;;;;;;;;;;;6.07;100.00;98882.78;5049225;28;19994;-88
2023/04/21 15:31:19;;;;;;;;;;;;;;;6.03;100.00;98882.06;5038076;28;20365;-90
2023/04/21 15:33:45;;;;;;;;;;;;;;;5.98;100.00;98887.47;5052150;28;19924;-89
2023/04/21 15:36:20;;;;;;;;;;;;;;;5.98;100.00;98879.59;5038395;28;20334;-91
2023/04/21 15:38:52;;;;;;;;;;;;;;;5.97;100.00;98877.88;5037767;28;19925;-87
2023/04/21 15:41:21;;;;;;;;;;;;;;;5.91;100.00;98861.44;5052561;28;20335;-85
2023/04/21 15:43:49;;;;;;;;;;;;;;;5.93;100.00;98851.72;5039046;28;19921;-92
2023/04/21 15:46:14;;;;;;;;;;;;;;;5.81;100.00;98842.53;5036974;28;19975;-86
2023/04/21 15:48:40;;;;;;;;;;;;;;;5.74;100.00;98833.16;5048063;28;19921;-88
2023/04/21 15:51:06;;;;;;;;;;;;;;;5.69;100.00;98841.22;5048658;28;19974;-89
2023/04/21 15:53:54;;;;;;;;;;;;;;;5.75;100.00;98827.84;5048840;28;19983;-87
2023/04/21 15:56:20;;;;;;;;;;;;;;;5.67;100.00;98831.69;5037103;28;20388;-87
2023/04/21 15:58:50;;;;;;;;;;;;;;;5.63;100.00;98831.81;5049095;28;19928;-89
2023/04/21 16:01:21;;;;;;;;;;;;;;;5.63;100.00;98823.94;5037227;28;20368;-90
2023/04/21 16:03:47;;;;;;;;;;;;;;;6.06;100.00;98817.94;5041777;28;19967;-88
2023/04/21 16:06:19;;;;;;;;;;;;;;;6.61;100.00;98820.94;5040243;28;19917;-89
2023/04/21 16:08:57;;;;;;;;;;;;;;;;;;;;;
2023/04/21 16:11:28;;;;;;;;;;;;;;;7.12;100.00;98820.56;5051412;28;19939;-88
2023/04/21 16:13:53;;;;;;;;;;;;;;;7.26;100.00;98812.91;5035946;28;19916;-87
2023/04/21 16:16:26;;;;;;;;;;;;;;;7.37;100.00;98815.91;5034057;28;19986;-90
2023/04/21 16:19:14;;;;;;;;;;;;;;;7.47;100.00;98805.78;5040047;28;19920;-90
2023/04/21 16:21:44;;;;;;;;;;;;;;;7.56;100.00;98804.50;5049327;28;20287;-91
2023/04/21 16:24:20;;;;;;;;;;;;;;;;;;;;;
2023/04/21 16:26:45;;;;;;;;;;;;;;;7.72;100.00;98794.09;5050753;28;19917;-90
2023/04/21 16:29:11;;;;;;;;;;;;;;;7.75;100.00;98796.59;5037828;28;20016;-89
2023/04/21 16:34:48;;;;;;;;;;;;;;;7.88;100.00;98788.97;5051630;28;20375;-90
2023/04/21 16:37:14;;;;;;;;;;;;;;;7.94;100.00;98783.38;5036320;28;19956;-90
2023/04/21 16:39:45;;;;;;;;;;;;;;;8.00;100.00;98788.38;5047903;28;19967;-91
2023/04/21 16:42:22;;;;;;;;;;;;;;;;;;;;;
2023/04/21 16:44:49;;;;;;;;;;;;;;;8.09;100.00;98782.66;5050106;28;19939;-88
2023/04/21 16:47:17;;;;;;;;;;;;;;;8.17;100.00;98792.84;5038450;28;20398;-89
2023/04/21 16:49:42;;;;;;;;;;;;;;;8.19;100.00;98781.25;5051394;28;19921;-90
2023/04/21 16:52:17;;;;;;;;;;;;;;;;;;;;;
2023/04/21 16:54:43;;;;;;;;;;;;;;;8.31;100.00;98778.94;5044359;28;19921;-86
2023/04/21 16:57:08;;;;;;;;;;;;;;;8.35;100.00;98777.88;5048309;28;19924;-89
2023/04/21 16:59:39;;;;;;;;;;;;;;;8.38;100.00;98772.44;5048988;28;19925;-90
2023/04/21 17:02:17;;;;;;;;;;;;;;;8.42;100.00;98774.00;5040872;28;19925;-89
2023/04/21 17:05:02;;;;;;;;;;;;;;;8.46;100.00;98777.38;5053729;28;19971;-90
2023/04/21 17:07:38;;;;;;;;;;;;;;;;;;;;;
2023/04/21 17:10:37;;;;;;;;;;;;;;;;;;;;;
2023/04/21 17:13:07;;;;;;;;;;;;;;;8.59;100.00;98767.06;5018034;28;19917;-89
2023/04/21 17:15:42;;;;;;;;;;;;;;;8.60;100.00;98768.75;5038879;28;20307;-90
2023/04/21 17:18:31;;;;;;;;;;;;;;;8.61;100.00;98768.66;5052824;28;19931;-89
2023/04/21 17:21:05;;;;;;;;;;;;;;;8.66;100.00;98771.94;5052225;28;19925;-89
2023/04/21 17:23:34;;;;;;;;;;;;;;;8.67;100.00;98767.50;5039686;28;19928;-88
2023/04/21 17:25:59;;;;;;;;;;;;;;;8.68;100.00;98770.06;5040944;28;20438;-90
2023/04/21 17:28:28;;;;;;;;;;;;;;;8.70;100.00;98770.00;5041148;28;19929;-90
2023/04/21 17:31:19;;;;;;;;;;;;;;;8.71;100.00;98767.28;5053505;28;19921;-88
2023/04/21 17:33:57;;;;;;;;;;;;;;;8.73;100.00;98762.75;5053048;28;19944;-86
2023/04/21 17:36:23;;;;;;;;;;;;;;;8.79;100.00;98768.66;5053261;28;20331;-85
2023/04/21 17:38:51;;;;;;;;;;;;;;;8.79;100.00;98764.25;5053960;28;19917;-87
2023/04/21 17:41:37;;;;;;;;;;;;;;;8.80;100.00;98760.66;5038633;28;20376;-93
2023/04/21 17:44:05;;;;;;;;;;;;;;;8.81;100.00;98765.00;5050690;28;19983;-85
2023/04/21 17:46:48;;;;;;;;;;;;;;;;;;;;;
2023/04/21 17:49:16;;;;;;;;;;;;;;;9.82;100.00;98768.44;5048266;28;19928;-87
2023/04/21 17:51:52;;;;;;;;;;;;;;;;;;;;;
2023/04/21 17:54:27;;;;;;;;;;;;;;;7.49;100.00;98774.09;5054042;28;19931;-86
2023/04/21 17:56:52;;;;;;;;;;;;;;;7.09;100.00;98787.28;5054621;28;20375;-89
2023/04/21 17:59:18;;;;;;;;;;;;;;;6.79;100.00;98782.44;5054034;28;20007;-87
2023/04/21 18:01:45;;;;;;;;;;;;;;;6.57;100.00;98777.25;5051524;28;20276;-86
2023/04/21 18:04:12;;;;;;;;;;;;;;;6.47;100.00;98786.47;5052160;28;19931;-85
2023/04/21 18:06:49;;;;;;;;;;;;;;;;;;;;;
2023/04/21 18:09:15;;;;;;;;;;;;;;;6.20;100.00;98789.31;5051171;28;20429;-87
2023/04/21 18:11:41;;;;;;;;;;;;;;;6.16;100.00;98795.63;5053204;28;20000;-84
2023/04/21 18:14:06;;;;;;;;;;;;;;;6.07;100.00;98783.69;5039696;28;20442;-84
2023/04/21 18:16:31;;;;;;;;;;;;;;;6.00;100.00;98790.97;5051477;28;19920;-87
2023/04/21 18:18:57;;;;;;;;;;;;;;;5.95;100.00;98795.53;5052181;28;19928;-85
2023/04/21 18:21:23;;;;;;;;;;;;;;;5.95;100.00;98794.66;5051505;28;20340;-86
2023/04/21 18:23:48;;;;;;;;;;;;;;;6.84;100.00;98798.88;5053515;28;19923;-84
2023/04/21 18:26:19;;;;;;;;;;;;;;;6.13;100.00;98804.47;5039293;28;20457;-89
2023/04/21 18:28:44;;;;;;;;;;;;;;;5.89;100.00;98808.91;5053795;28;20390;-85
2023/04/21 18:31:10;;;;;;;;;;;;;;;5.73;100.00;98806.03;5036008;28;19924;-83
2023/04/21 18:33:42;;;;;;;;;;;;;;;5.71;100.00;98810.50;5050137;28;19967;-84
2023/04/21 18:36:08;;;;;;;;;;;;;;;5.62;100.00;98809.06;5037954;28;19932;-82
2023/04/21 18:38:33;;;;;;;;;;;;;;;5.55;100.00;98815.47;5047099;28;20335;-85
2023/04/21 18:41:01;;;;;;;;;;;;;;;5.55;100.00;98814.59;5050790;28;20005;-88
2023/04/21 18:43:36;;;;;;;;;;;;;;;5.50;100.00;98814.78;5039302;28;19917;-84
2023/04/21 18:46:06;;;;;;;;;;;;;;;5.49;100.00;98820.09;5038050;28;19920;-86
2023/04/21 18:48:31;;;;;;;;;;;;;;;5.95;100.00;98815.69;5033710;28;19924;-86
2023/04/21 18:50:57;;;;;;;;;;;;;;;6.63;100.00;98813.00;5035619;28;19925;-84
2023/04/21 18:53:22;;;;;;;;;;;;;;;6.97;100.00;98820.28;5035593;28;19929;-85
2023/04/21 18:55:47;;;;;;;;;;;;;;;7.18;100.00;98825.53;5037118;28;20910;-88
2023/04/21 18:58:13;;;;;;;;;;;;;;;7.32;100.00;98832.84;5032379;28;20315;-86
2023/04/21 19:00:41;;;;;;;;;;;;;;;7.43;100.00;98831.41;5047878;28;19943;-84
2023/04/21 19:03:07;;;;;;;;;;;;;;;7.53;100.00;98831.00;5034540;28;20382;-86
2023/04/21 19:05:34;;;;;;;;;;;;;;;7.59;100.00;98834.22;5035850;28;20005;-87
2023/04/21 19:08:02;;;;;;;;;;;;;;;7.68;100.00;98840.00;5036147;28;19950;-88
2023/04/21 19:10:33;;;;;;;;;;;;;;;7.73;100.00;98841.50;5047319;28;19925;-88